Time;durP1;ratioP1;P1;durP2;ratioP2;P2;SDS_P1;SDS_P2;PMS_P1;PMS_P2;Temp;Humidity;BMP_temperature;BMP_pressure;BME280_temperature;BME280_humidity;BME280_pressure;Samples;Min_cycle;Max_cycle;Signal;HPM_P1;HPM_P2
2023/05/25 00:00:41;;;;;;;10.43;5.33;;;12.50;99.90;;;;;;4990917;28;20179;-72
2023/05/25 00:03:08;;;;;;;11.03;4.50;;;12.50;99.90;;;;;;4991509;28;20182;-72
2023/05/25 00:05:34;;;;;;;8.68;3.95;;;12.50;99.90;;;;;;4990702;28;20218;-72
2023/05/25 00:08:00;;;;;;;9.63;4.32;;;12.50;99.90;;;;;;4992847;28;20186;-72
2023/05/25 00:10:26;;;;;;;8.38;3.50;;;12.50;99.90;;;;;;5020094;28;20174;-72
2023/05/25 00:12:55;;;;;;;7.27;3.67;;;12.40;99.90;;;;;;5013612;28;20170;-72
2023/05/25 00:15:21;;;;;;;8.48;4.25;;;12.40;99.90;;;;;;5029733;28;20197;-72
2023/05/25 00:17:47;;;;;;;8.35;3.85;;;12.40;99.90;;;;;;5029678;28;20229;-72
2023/05/25 00:20:13;;;;;;;7.90;5.33;;;12.40;99.90;;;;;;5020630;28;20571;-72
2023/05/25 00:22:43;;;;;;;10.73;4.38;;;12.40;99.90;;;;;;5009961;28;21165;-72
2023/05/25 00:25:10;;;;;;;14.45;4.18;;;12.30;99.90;;;;;;4993704;28;20226;-72
2023/05/25 00:27:36;;;;;;;6.22;4.00;;;12.30;99.90;;;;;;5009391;28;20194;-72
2023/05/25 00:30:01;;;;;;;8.37;4.83;;;12.30;99.90;;;;;;5011412;28;20293;-72
2023/05/25 00:32:27;;;;;;;12.73;4.10;;;12.20;99.90;;;;;;5009526;28;20186;-72
2023/05/25 00:34:53;;;;;;;6.90;3.40;;;12.20;99.90;;;;;;5011011;28;20627;-72
2023/05/25 00:37:19;;;;;;;6.90;4.00;;;12.20;99.90;;;;;;4992798;28;20198;-72
2023/05/25 00:39:45;;;;;;;8.53;4.10;;;12.20;99.90;;;;;;5010075;28;20181;-72
2023/05/25 00:42:11;;;;;;;7.67;4.20;;;12.20;99.90;;;;;;5009322;28;20598;-72
2023/05/25 00:44:37;;;;;;;9.18;3.80;;;12.20;99.90;;;;;;5009928;28;20198;-72
2023/05/25 00:47:03;;;;;;;7.07;4.57;;;12.10;99.90;;;;;;4993403;28;20188;-72
2023/05/25 00:49:35;;;;;;;11.75;5.60;;;12.10;99.90;;;;;;5010771;28;20680;-72
2023/05/25 00:52:02;;;;;;;8.98;3.92;;;12.10;99.90;;;;;;5009766;28;20265;-72
2023/05/25 00:54:28;;;;;;;6.93;4.70;;;12.10;99.90;;;;;;5009238;28;20209;-72
2023/05/25 00:57:03;;;;;;;9.73;4.97;;;12.10;99.90;;;;;;4993285;28;20198;-72
2023/05/25 00:59:40;;;;;;;7.72;4.85;;;12.10;99.90;;;;;;5009470;28;20176;-72
2023/05/25 01:02:10;;;;;;;7.22;4.18;;;12.00;99.90;;;;;;5010587;28;20202;-73
2023/05/25 01:04:45;;;;;;;4.68;3.50;;;12.00;99.90;;;;;;5013670;28;20250;-72
2023/05/25 01:07:16;;;;;;;8.15;5.32;;;12.00;99.90;;;;;;5022285;28;20756;-72
2023/05/25 01:09:44;;;;;;;8.80;4.70;;;12.00;99.90;;;;;;5029541;28;20185;-72
2023/05/25 01:12:13;;;;;;;9.82;5.32;;;12.00;99.90;;;;;;5028782;28;20166;-72
2023/05/25 01:14:40;;;;;;;8.82;4.65;;;11.90;99.90;;;;;;5017448;28;20202;-72
2023/05/25 01:17:12;;;;;;;12.52;5.75;;;11.90;99.90;;;;;;5008907;28;20405;-72
2023/05/25 01:19:39;;;;;;;7.72;4.47;;;11.90;99.90;;;;;;5009674;28;20194;-72
2023/05/25 01:22:18;;;;;;;10.82;6.47;;;11.80;99.90;;;;;;5009058;28;20182;-72
2023/05/25 01:24:54;;;;;;;11.57;4.90;;;11.80;99.90;;;;;;5002738;28;20214;-72
2023/05/25 01:27:29;;;;;;;8.55;5.00;;;11.70;99.90;;;;;;5007455;28;20518;-72
2023/05/25 01:29:58;;;;;;;9.52;5.82;;;11.70;99.90;;;;;;4996313;28;20170;-72
2023/05/25 01:32:25;;;;;;;11.00;5.38;;;11.70;99.90;;;;;;4996663;28;20181;-72
2023/05/25 01:34:51;;;;;;;11.98;6.20;;;11.60;99.90;;;;;;4996080;28;20194;-72
2023/05/25 01:37:19;;;;;;;9.00;4.88;;;11.60;99.90;;;;;;4996307;28;20261;-72
2023/05/25 01:39:45;;;;;;;6.93;5.20;;;11.60;99.90;;;;;;5012772;28;20182;-72
2023/05/25 01:42:10;;;;;;;9.23;5.33;;;11.60;99.90;;;;;;5012933;28;20171;-72
2023/05/25 01:44:37;;;;;;;7.40;4.67;;;11.50;99.90;;;;;;5012038;28;20616;-72
2023/05/25 01:47:12;;;;;;;7.38;5.85;;;11.50;99.90;;;;;;5012775;28;20185;-72
2023/05/25 01:50:22;;;;;;;9.27;5.05;;;11.50;99.90;;;;;;5012572;28;20231;-72
2023/05/25 01:52:57;;;;;;;12.70;5.18;;;11.40;99.90;;;;;;5000030;28;20221;-72
2023/05/25 01:55:27;;;;;;;8.40;4.55;;;11.40;99.90;;;;;;4995837;28;20711;-72
2023/05/25 01:57:57;;;;;;;10.80;5.68;;;11.40;99.90;;;;;;5013248;28;20216;-72
2023/05/25 02:00:30;;;;;;;8.30;5.03;;;11.30;99.90;;;;;;4996107;28;20570;-72
2023/05/25 02:02:57;;;;;;;7.38;4.70;;;11.30;99.90;;;;;;5012081;28;20178;-72
2023/05/25 02:05:22;;;;;;;8.40;4.75;;;11.30;99.90;;;;;;5012605;28;20194;-72
2023/05/25 02:07:48;;;;;;;6.33;4.60;;;11.20;99.90;;;;;;5011815;28;20698;-73
2023/05/25 02:10:14;;;;;;;6.60;5.10;;;11.20;99.90;;;;;;5012559;28;20194;-72
2023/05/25 02:12:41;;;;;;;6.25;4.90;;;11.20;99.90;;;;;;4995704;28;20585;-72
2023/05/25 02:15:07;;;;;;;13.37;4.90;;;11.20;99.90;;;;;;5012566;28;20206;-78
2023/05/25 02:17:35;;;;;;;10.32;5.15;;;11.10;99.90;;;;;;5012104;28;20206;-79
2023/05/25 02:20:04;;;;;;;9.30;5.38;;;11.10;99.90;;;;;;5013940;28;20810;-79
2023/05/25 02:22:30;;;;;;;10.95;6.05;;;11.10;99.90;;;;;;5012480;28;20181;-79
2023/05/25 02:24:55;;;;;;;13.95;5.68;;;11.10;99.90;;;;;;5011778;28;20201;-80
2023/05/25 02:27:21;;;;;;;7.70;5.60;;;11.10;99.90;;;;;;4995684;28;20178;-79
2023/05/25 02:29:47;;;;;;;8.17;5.30;;;11.10;99.90;;;;;;5012061;28;20189;-80
2023/05/25 02:32:12;;;;;;;12.97;5.93;;;11.10;99.90;;;;;;5013502;28;20182;-80
2023/05/25 02:34:38;;;;;;;8.30;4.47;;;11.10;99.90;;;;;;5014812;28;20194;-79
2023/05/25 02:37:05;;;;;;;6.07;4.32;;;11.10;99.90;;;;;;5015080;28;20587;-79
2023/05/25 02:39:31;;;;;;;12.27;5.27;;;11.00;99.90;;;;;;5015611;28;20170;-79
2023/05/25 02:41:58;;;;;;;8.55;4.90;;;11.10;99.90;;;;;;5016711;28;20568;-79
2023/05/25 02:44:25;;;;;;;9.23;4.80;;;11.00;99.90;;;;;;5016190;28;20197;-79
2023/05/25 02:46:51;;;;;;;9.97;4.97;;;11.00;99.90;;;;;;5033494;28;20174;-79
2023/05/25 02:49:16;;;;;;;6.40;4.97;;;11.00;99.90;;;;;;5033415;28;20584;-81
2023/05/25 02:51:42;;;;;;;13.20;5.67;;;11.00;99.90;;;;;;5031676;28;20277;-79
2023/05/25 02:54:08;;;;;;;9.50;5.57;;;11.00;99.90;;;;;;5031569;28;20186;-79
2023/05/25 02:56:34;;;;;;;9.10;5.50;;;11.00;99.90;;;;;;5031493;28;20206;-79
2023/05/25 02:59:01;;;;;;;10.73;5.60;;;11.00;99.90;;;;;;5015278;28;20212;-79
2023/05/25 03:01:33;;;;;;;8.35;5.38;;;10.90;99.90;;;;;;5015663;28;20204;-79
2023/05/25 03:03:59;;;;;;;7.72;5.40;;;10.90;99.90;;;;;;5014633;28;20181;-72
2023/05/25 03:06:26;;;;;;;13.70;6.22;;;10.90;99.90;;;;;;5014386;28;20189;-72
2023/05/25 03:08:56;;;;;;;9.90;5.88;;;10.90;99.90;;;;;;5014294;28;20166;-72
2023/05/25 03:11:22;;;;;;;10.90;5.70;;;10.90;99.90;;;;;;5031024;28;20181;-72
2023/05/25 03:13:48;;;;;;;8.63;5.95;;;10.90;99.90;;;;;;5030571;28;20182;-72
2023/05/25 03:16:16;;;;;;;8.73;5.50;;;10.90;99.90;;;;;;5030625;28;20197;-72
2023/05/25 03:18:42;;;;;;;7.83;5.27;;;10.90;99.90;;;;;;5031074;28;20645;-71
2023/05/25 03:21:08;;;;;;;11.48;6.28;;;10.80;99.90;;;;;;5013980;28;20178;-72
2023/05/25 03:23:34;;;;;;;9.10;6.27;;;10.80;99.90;;;;;;5030849;28;20200;-71
2023/05/25 03:26:03;;;;;;;9.02;6.00;;;10.80;99.90;;;;;;5030259;28;20689;-72
2023/05/25 03:28:29;;;;;;;8.80;5.60;;;10.80;99.90;;;;;;5014968;28;20226;-72
2023/05/25 03:30:55;;;;;;;8.53;5.13;;;10.80;99.90;;;;;;5015597;28;20626;-72
2023/05/25 03:33:21;;;;;;;9.85;5.70;;;10.80;99.90;;;;;;5015233;28;20178;-72
2023/05/25 03:35:48;;;;;;;8.27;5.47;;;10.80;99.90;;;;;;5010204;28;20202;-72
2023/05/25 03:38:14;;;;;;;7.75;6.03;;;10.80;99.90;;;;;;4994183;28;20180;-72
2023/05/25 03:40:40;;;;;;;7.50;5.13;;;10.80;99.90;;;;;;5012231;28;20266;-72
2023/05/25 03:43:06;;;;;;;12.23;6.00;;;10.80;99.90;;;;;;4994177;28;20897;-71
2023/05/25 03:45:31;;;;;;;7.83;5.70;;;10.80;99.90;;;;;;5028310;23;20712;-78
2023/05/25 03:47:57;;;;;;;10.70;5.00;;;10.90;99.90;;;;;;5021379;28;20173;-77
2023/05/25 03:50:23;;;;;;;9.10;5.70;;;10.90;99.90;;;;;;5028292;28;20755;-77
2023/05/25 03:52:49;;;;;;;10.77;5.63;;;10.90;99.90;;;;;;5005260;28;20177;-77
2023/05/25 03:55:14;;;;;;;8.90;4.93;;;10.90;99.90;;;;;;5031690;28;20625;-77
2023/05/25 03:57:40;;;;;;;10.70;4.93;;;10.90;99.90;;;;;;5013535;28;20221;-79
2023/05/25 04:00:08;;;;;;;7.80;5.60;;;10.90;99.90;;;;;;5029483;28;20232;-78
2023/05/25 04:02:38;;;;;;;9.70;5.85;;;10.90;99.90;;;;;;5031395;28;20170;-78
2023/05/25 04:05:07;;;;;;;7.60;5.77;;;10.90;99.90;;;;;;5029641;28;20576;-78
2023/05/25 04:07:32;;;;;;;10.25;6.18;;;10.90;99.90;;;;;;5046427;28;20568;-77
2023/05/25 04:09:58;;;;;;;8.17;5.50;;;10.90;99.90;;;;;;5029834;28;20196;-77
2023/05/25 04:12:25;;;;;;;7.53;4.63;;;10.90;99.90;;;;;;5018066;28;20681;-76
2023/05/25 04:14:51;;;;;;;9.45;5.68;;;11.00;99.90;;;;;;5009930;28;21048;-78
2023/05/25 04:17:20;;;;;;;9.88;5.63;;;11.00;99.90;;;;;;4993029;28;20213;-77
2023/05/25 04:19:47;;;;;;;15.00;5.65;;;11.00;99.90;;;;;;4997773;28;20173;-77
2023/05/25 04:22:13;;;;;;;9.18;5.80;;;11.10;99.90;;;;;;5016883;28;20170;-77
2023/05/25 04:24:40;;;;;;;8.60;6.27;;;11.10;99.90;;;;;;5014526;28;20689;-76
2023/05/25 04:27:06;;;;;;;11.20;5.60;;;11.20;99.90;;;;;;5021379;28;20612;-76
2023/05/25 04:29:32;;;;;;;9.10;4.87;;;11.20;99.90;;;;;;5020926;28;20170;-76
2023/05/25 04:32:08;;;;;;;11.38;4.80;;;11.30;99.90;;;;;;5030812;28;21170;-76
2023/05/25 04:34:47;;;;;;;6.72;5.20;;;11.40;99.90;;;;;;5020950;28;20213;-76
2023/05/25 04:37:18;;;;;;;7.93;5.85;;;11.50;99.90;;;;;;4993538;28;20367;-76
2023/05/25 04:39:44;;;;;;;7.23;5.40;;;11.60;99.90;;;;;;4993382;28;20269;-77
2023/05/25 04:42:11;;;;;;;6.85;4.57;;;11.70;99.90;;;;;;5011182;28;20569;-78
2023/05/25 04:44:38;;;;;;;8.57;4.85;;;11.80;99.90;;;;;;5009298;28;20198;-77
2023/05/25 04:47:06;;;;;;;10.90;4.85;;;12.00;99.90;;;;;;5027106;28;20250;-77
2023/05/25 04:49:33;;;;;;;7.72;5.82;;;12.20;99.90;;;;;;4999347;28;20182;-76
2023/05/25 04:51:58;;;;;;;10.63;4.60;;;12.60;99.90;;;;;;5026453;28;20178;-75
2023/05/25 04:54:27;;;;;;;9.80;4.85;;;12.90;99.90;;;;;;5009449;28;20252;-75
2023/05/25 04:56:57;;;;;;;5.10;4.38;;;13.20;99.90;;;;;;5009603;28;20619;-75
2023/05/25 04:59:22;;;;;;;7.88;4.50;;;13.50;99.90;;;;;;4995731;28;20202;-76
2023/05/25 05:01:48;;;;;;;8.67;5.97;;;13.60;99.90;;;;;;5014469;28;20198;-75
2023/05/25 05:04:16;;;;;;;9.65;4.70;;;13.80;99.90;;;;;;4997131;28;20170;-76
2023/05/25 05:06:43;;;;;;;8.52;4.90;;;13.90;99.90;;;;;;4996731;28;20201;-76
2023/05/25 05:09:13;;;;;;;8.50;4.67;;;14.10;99.90;;;;;;5014020;28;20190;-76
2023/05/25 05:11:39;;;;;;;9.03;5.27;;;14.30;99.90;;;;;;5012935;28;21152;-75
2023/05/25 05:14:06;;;;;;;13.30;5.50;;;14.50;99.90;;;;;;5013600;28;20185;-76
2023/05/25 05:16:33;;;;;;;7.97;5.20;;;14.70;99.90;;;;;;5014269;28;20206;-76
2023/05/25 05:19:02;;;;;;;11.10;4.97;;;14.90;99.90;;;;;;5013383;28;20439;-76
2023/05/25 05:21:28;;;;;;;9.03;5.30;;;15.20;99.90;;;;;;5013531;28;20635;-76
2023/05/25 05:23:55;;;;;;;7.80;4.73;;;15.40;99.90;;;;;;5003032;28;20929;-77
2023/05/25 05:26:22;;;;;;;9.47;6.27;;;15.70;99.90;;;;;;5016858;28;20251;-77
2023/05/25 05:28:49;;;;;;;8.60;5.57;;;16.10;99.90;;;;;;5017738;28;20586;-75
2023/05/25 05:31:17;;;;;;;13.50;6.20;;;16.40;99.90;;;;;;5033814;28;20619;-76
2023/05/25 05:33:43;;;;;;;8.10;4.83;;;16.80;99.90;;;;;;5033442;28;20568;-76
2023/05/25 05:36:09;;;;;;;10.17;5.13;;;16.90;99.90;;;;;;5020300;28;20668;-76
2023/05/25 05:38:36;;;;;;;10.60;5.07;;;17.00;99.90;;;;;;5013453;28;20653;-76
2023/05/25 05:41:02;;;;;;;11.50;5.43;;;17.10;99.90;;;;;;5012573;28;20584;-75
2023/05/25 05:43:28;;;;;;;11.23;5.73;;;17.20;99.90;;;;;;4996980;28;20577;-76
2023/05/25 05:45:53;;;;;;;11.20;5.77;;;17.20;99.90;;;;;;5013498;28;20632;-76
2023/05/25 05:48:19;;;;;;;9.67;4.87;;;17.40;99.90;;;;;;5014335;28;20177;-75
2023/05/25 05:50:45;;;;;;;7.27;4.07;;;17.70;99.90;;;;;;4996074;28;20654;-76
2023/05/25 05:53:12;;;;;;;10.80;4.20;;;18.40;99.90;;;;;;5012994;28;20217;-75
2023/05/25 05:55:38;;;;;;;8.77;4.00;;;19.20;99.90;;;;;;5012304;28;20605;-76
2023/05/25 05:58:03;;;;;;;7.03;4.07;;;20.10;99.90;;;;;;5012567;28;20229;-77
2023/05/25 06:00:29;;;;;;;5.60;4.10;;;20.90;99.90;;;;;;5012935;28;20379;-76
2023/05/25 06:02:55;;;;;;;7.57;3.80;;;21.80;99.90;;;;;;5012630;28;20166;-76
2023/05/25 06:05:24;;;;;;;6.70;3.77;;;22.70;99.90;;;;;;4996160;28;20704;-76
2023/05/25 06:07:51;;;;;;;11.53;4.43;;;23.50;99.90;;;;;;4995853;28;20593;-76
2023/05/25 06:10:19;;;;;;;8.43;4.47;;;24.40;99.90;;;;;;5028936;28;20589;-76
2023/05/25 06:12:45;;;;;;;7.57;3.43;;;25.20;99.90;;;;;;5011771;28;20578;-76
2023/05/25 06:15:11;;;;;;;12.53;4.20;;;25.80;99.90;;;;;;4996175;28;20660;-76
2023/05/25 06:17:38;;;;;;;5.80;4.40;;;26.50;99.90;;;;;;5011755;28;20244;-76
2023/05/25 06:20:05;;;;;;;8.80;4.03;;;27.20;99.90;;;;;;5012252;28;20638;-76
2023/05/25 06:22:32;;;;;;;7.00;3.90;;;27.70;99.90;;;;;;5017069;28;21145;-76
2023/05/25 06:24:58;;;;;;;7.40;3.77;;;28.30;99.90;;;;;;4976107;28;21232;-76
2023/05/25 06:27:24;;;;;;;6.03;3.43;;;28.90;99.90;;;;;;5008665;28;20690;-76
2023/05/25 06:29:49;;;;;;;5.50;3.10;;;29.40;99.90;;;;;;4993556;28;20927;-76
2023/05/25 06:32:15;;;;;;;6.97;3.17;;;29.80;99.60;;;;;;4976603;28;20636;-76
2023/05/25 06:34:41;;;;;;;9.00;3.93;;;30.20;97.80;;;;;;4999973;28;20202;-76
2023/05/25 06:37:08;;;;;;;6.50;3.63;;;30.60;96.50;;;;;;5011821;28;20582;-76
2023/05/25 06:39:34;;;;;;;8.97;4.37;;;30.90;94.30;;;;;;5028510;28;20590;-76
2023/05/25 06:42:01;;;;;;;8.13;3.87;;;31.10;92.10;;;;;;5011694;28;20578;-76
2023/05/25 06:44:30;;;;;;;8.40;4.77;;;31.30;90.90;;;;;;5011985;28;20967;-76
2023/05/25 06:47:00;;;;;;;5.50;3.50;;;31.50;90.10;;;;;;5011120;28;20588;-76
2023/05/25 06:49:27;;;;;;;7.17;3.67;;;31.70;84.10;;;;;;5011709;28;21354;-76
2023/05/25 06:51:53;;;;;;;8.87;3.53;;;31.80;81.70;;;;;;5011497;28;20597;-76
2023/05/25 06:54:18;;;;;;;6.87;3.60;;;32.00;80.30;;;;;;5012972;28;20645;-76
2023/05/25 06:56:45;;;;;;;7.67;3.77;;;32.10;78.80;;;;;;5027648;28;20249;-76
2023/05/25 06:59:10;;;;;;;13.60;5.00;;;32.20;77.50;;;;;;5011480;28;20627;-75
2023/05/25 07:01:37;;;;;;;9.30;4.63;;;32.40;75.80;;;;;;5028002;28;21125;-75
2023/05/25 07:04:02;;;;;;;10.50;4.63;;;32.60;75.20;;;;;;5011113;28;20625;-76
2023/05/25 07:06:28;;;;;;;7.30;3.77;;;32.90;72.80;;;;;;5011554;28;20189;-75
2023/05/25 07:08:54;;;;;;;6.27;3.37;;;33.00;71.90;;;;;;5010986;28;20187;-76
2023/05/25 07:11:20;;;;;;;6.13;4.00;;;33.30;70.80;;;;;;4995000;28;20255;-76
2023/05/25 07:13:47;;;;;;;8.77;4.77;;;33.50;70.00;;;;;;5012121;28;20612;-76
2023/05/25 07:16:13;;;;;;;6.60;3.80;;;33.90;68.20;;;;;;5023927;28;20655;-76
2023/05/25 07:18:42;;;;;;;6.07;3.23;;;34.10;67.10;;;;;;5023263;28;21124;-76
2023/05/25 07:21:10;;;;;;;6.93;3.67;;;34.30;66.20;;;;;;5029628;28;20576;-76
2023/05/25 07:23:37;;;;;;;8.13;3.70;;;34.60;64.50;;;;;;5032190;28;20571;-76
2023/05/25 07:26:03;;;;;;;7.63;4.03;;;34.80;62.50;;;;;;5029963;28;20623;-76
2023/05/25 07:28:28;;;;;;;7.70;4.00;;;34.90;58.50;;;;;;5032080;28;20580;-76
2023/05/25 07:30:54;;;;;;;8.97;4.20;;;34.60;57.70;;;;;;5030386;28;20675;-76
2023/05/25 07:33:20;;;;;;;7.03;3.20;;;34.20;56.90;;;;;;5032070;28;20178;-76
2023/05/25 07:35:46;;;;;;;9.70;3.47;;;34.10;57.30;;;;;;5014124;28;20696;-76
2023/05/25 07:38:12;;;;;;;7.50;3.83;;;34.30;57.80;;;;;;5010572;28;20178;-76
2023/05/25 07:40:37;;;;;;;6.53;3.67;;;34.40;57.20;;;;;;5010966;28;20186;-76
2023/05/25 07:43:04;;;;;;;7.30;4.23;;;34.60;57.30;;;;;;5011405;28;20217;-76
2023/05/25 07:45:29;;;;;;;8.00;3.17;;;35.00;56.90;;;;;;5011593;28;20214;-76
2023/05/25 07:47:55;;;;;;;5.77;3.17;;;35.20;55.60;;;;;;5009950;28;20589;-77
2023/05/25 07:50:22;;;;;;;8.50;4.17;;;35.40;55.40;;;;;;4994550;28;20217;-76
2023/05/25 07:52:48;;;;;;;5.20;4.07;;;35.70;55.10;;;;;;5012314;28;20282;-77
2023/05/25 07:55:13;;;;;;;7.43;3.40;;;35.90;53.40;;;;;;5010680;28;21053;-76
2023/05/25 07:57:39;;;;;;;6.07;3.50;;;36.00;53.00;;;;;;4994043;28;20577;-75
2023/05/25 08:00:07;;;;;;;7.77;3.60;;;36.10;52.00;;;;;;5011603;28;20224;-76
2023/05/25 08:02:38;;;;;;;5.30;2.90;;;36.30;51.50;;;;;;5011915;28;20170;-77
2023/05/25 08:05:04;;;;;;;7.07;3.77;;;36.30;51.50;;;;;;5010038;28;20800;-76
2023/05/25 08:07:36;;;;;;;9.23;3.63;;;36.50;51.10;;;;;;5011598;28;20186;-76
2023/05/25 08:10:02;;;;;;;7.13;3.57;;;36.70;50.80;;;;;;5011325;28;20685;-76
2023/05/25 08:12:28;;;;;;;5.83;2.73;;;36.90;50.70;;;;;;5012395;28;20688;-77
2023/05/25 08:14:54;;;;;;;9.43;3.27;;;37.10;50.20;;;;;;5015548;28;20609;-76
2023/05/25 08:17:20;;;;;;;4.40;2.97;;;37.10;49.40;;;;;;5011065;28;20643;-76
2023/05/25 08:19:46;;;;;;;7.70;2.97;;;36.50;47.40;;;;;;5010194;28;20578;-76
2023/05/25 08:22:12;;;;;;;8.60;3.50;;;36.10;47.10;;;;;;5010937;28;20569;-76
2023/05/25 08:24:38;;;;;;;7.10;3.33;;;35.90;47.30;;;;;;5011410;28;20194;-76
2023/05/25 08:27:04;;;;;;;8.60;4.37;;;35.50;46.60;;;;;;5009298;28;20612;-77
2023/05/25 08:29:30;;;;;;;5.07;3.67;;;34.80;46.10;;;;;;4997442;28;20181;-77
2023/05/25 08:31:55;;;;;;;7.47;4.10;;;33.90;45.40;;;;;;5011732;28;20167;-77
2023/05/25 08:34:21;;;;;;;9.27;4.90;;;33.00;45.40;;;;;;5008747;28;20200;-77
2023/05/25 08:36:47;;;;;;;7.13;4.00;;;32.30;46.10;;;;;;5010940;28;20233;-76
2023/05/25 08:39:14;;;;;;;6.60;3.80;;;31.60;46.40;;;;;;5010647;28;20181;-76
2023/05/25 08:41:42;;;;;;;4.90;2.70;;;31.20;47.20;;;;;;5011076;28;20572;-77
2023/05/25 08:44:09;;;;;;;5.00;2.67;;;31.10;48.40;;;;;;5010437;28;20582;-76
2023/05/25 08:46:35;;;;;;;8.60;3.00;;;31.40;49.60;;;;;;5011093;28;20667;-77
2023/05/25 08:49:05;;;;;;;5.47;3.07;;;31.60;49.80;;;;;;5009601;28;20570;-76
2023/05/25 08:51:38;;;;;;;6.90;3.50;;;31.60;48.60;;;;;;5008242;28;20585;-76
2023/05/25 08:54:09;;;;;;;6.17;3.60;;;31.60;48.50;;;;;;5024832;28;20585;-75
2023/05/25 08:56:58;;;;;;;7.40;3.13;;;31.80;48.60;;;;;;5009208;28;20621;-76
2023/05/25 08:59:35;;;;;;;5.23;3.57;;;31.70;48.00;;;;;;5026362;28;20613;-77
2023/05/25 09:02:06;;;;;;;6.43;2.63;;;31.50;47.60;;;;;;5009582;28;20581;-76
2023/05/25 09:04:33;;;;;;;7.13;2.80;;;31.30;47.50;;;;;;5011175;28;20957;-76
2023/05/25 09:07:00;;;;;;;5.27;2.60;;;31.00;47.20;;;;;;5010288;28;20584;-75
2023/05/25 09:09:27;;;;;;;5.77;3.23;;;30.60;46.80;;;;;;5023248;28;20614;-77
2023/05/25 09:11:54;;;;;;;5.90;3.00;;;30.20;47.00;;;;;;5009587;28;20684;-77
2023/05/25 09:14:20;;;;;;;4.50;2.73;;;29.90;47.40;;;;;;5027129;28;20588;-76
2023/05/25 09:16:46;;;;;;;7.20;2.67;;;29.80;48.10;;;;;;5014569;28;21158;-76
2023/05/25 09:19:12;;;;;;;4.23;2.80;;;30.00;48.80;;;;;;5021219;28;20588;-76
2023/05/25 09:21:38;;;;;;;4.80;3.10;;;30.10;48.80;;;;;;5012934;28;20995;-76
2023/05/25 09:24:04;;;;;;;3.60;2.47;;;30.20;48.80;;;;;;5009655;28;20261;-76
2023/05/25 09:26:30;;;;;;;5.70;2.83;;;30.50;49.50;;;;;;5019546;28;20186;-77
2023/05/25 09:28:55;;;;;;;6.90;3.10;;;31.00;49.50;;;;;;5006900;28;20596;-77
2023/05/25 09:31:23;;;;;;;6.13;2.60;;;31.50;49.50;;;;;;5030495;28;20173;-78
2023/05/25 09:33:49;;;;;;;8.07;3.40;;;32.00;49.10;;;;;;5036916;28;20205;-77
2023/05/25 09:36:19;;;;;;;5.77;2.83;;;32.60;49.10;;;;;;5009818;28;20643;-77
2023/05/25 09:38:45;;;;;;;6.37;2.53;;;32.80;47.90;;;;;;5025405;28;20585;-76
2023/05/25 09:41:11;;;;;;;6.00;2.73;;;33.00;47.90;;;;;;5010588;28;20661;-77
2023/05/25 09:43:36;;;;;;;6.63;3.17;;;33.20;47.40;;;;;;5012876;28;20167;-77
2023/05/25 09:46:03;;;;;;;6.20;2.80;;;33.40;46.60;;;;;;5012670;28;20195;-78
2023/05/25 09:48:29;;;;;;;5.80;3.40;;;33.40;46.10;;;;;;5029619;28;20641;-77
2023/05/25 09:50:55;;;;;;;4.43;2.80;;;33.10;45.30;;;;;;5012322;28;20588;-77
2023/05/25 09:53:21;;;;;;;5.10;2.20;;;33.00;45.70;;;;;;5029351;28;20641;-77
2023/05/25 09:55:48;;;;;;;5.20;2.40;;;33.00;46.10;;;;;;5011050;28;20649;-77
2023/05/25 09:58:14;;;;;;;6.40;2.87;;;33.00;46.20;;;;;;5013293;28;20691;-78
2023/05/25 10:00:40;;;;;;;5.57;2.80;;;33.10;46.40;;;;;;5014039;28;20583;-77
2023/05/25 10:03:06;;;;;;;3.77;2.60;;;33.50;46.90;;;;;;5010630;28;20199;-76
2023/05/25 10:05:32;;;;;;;7.47;5.00;;;33.80;46.60;;;;;;5022610;28;20596;-78
2023/05/25 10:08:00;;;;;;;6.30;2.47;;;34.20;46.70;;;;;;5010999;28;20619;-77
2023/05/25 10:10:27;;;;;;;5.30;3.23;;;34.40;46.10;;;;;;4991685;28;20190;-77
2023/05/25 10:12:54;;;;;;;5.10;2.57;;;34.40;45.00;;;;;;5035180;28;20714;-77
2023/05/25 10:15:21;;;;;;;5.87;2.83;;;34.30;44.70;;;;;;5025193;28;20624;-76
2023/05/25 10:17:54;;;;;;;5.03;3.60;;;34.20;44.60;;;;;;5024622;28;20651;-76
2023/05/25 10:20:24;;;;;;;4.90;3.23;;;34.20;44.30;;;;;;5025812;28;20641;-77
2023/05/25 10:23:09;;;;;;;5.27;2.90;;;34.30;45.30;;;;;;5025525;28;20584;-77
2023/05/25 10:25:47;;;;;;;4.53;2.53;;;34.60;45.40;;;;;;5019879;28;20957;-76
2023/05/25 10:28:16;;;;;;;4.00;2.60;;;35.00;45.20;;;;;;5029668;28;20928;-76
2023/05/25 10:30:42;;;;;;;6.30;2.90;;;35.20;45.00;;;;;;5031056;28;20683;-77
2023/05/25 10:33:09;;;;;;;5.80;3.20;;;35.30;44.00;;;;;;5032361;28;21197;-76
2023/05/25 10:35:38;;;;;;;5.10;3.10;;;35.10;42.90;;;;;;5016233;28;20983;-76
2023/05/25 10:38:05;;;;;;;4.03;2.30;;;34.90;43.20;;;;;;5010705;28;20637;-75
2023/05/25 10:40:33;;;;;;;4.90;3.10;;;34.80;43.40;;;;;;5011355;28;20588;-76
2023/05/25 10:42:59;;;;;;;3.73;2.47;;;34.80;43.50;;;;;;5010935;28;20585;-76
2023/05/25 10:45:25;;;;;;;6.07;4.00;;;34.80;43.50;;;;;;5027918;28;20628;-76
2023/05/25 10:47:51;;;;;;;5.13;3.23;;;34.80;42.80;;;;;;5010713;28;20592;-76
2023/05/25 10:50:23;;;;;;;5.03;2.80;;;34.40;42.60;;;;;;5012667;28;20584;-76
2023/05/25 10:53:00;;;;;;;6.00;3.50;;;34.10;42.30;;;;;;5011858;28;20189;-76
2023/05/25 10:55:52;;;;;;;6.80;3.47;;;33.70;42.30;;;;;;5011079;28;21146;-77
2023/05/25 10:58:20;;;;;;;7.43;3.60;;;33.40;42.70;;;;;;5013523;28;20683;-77
2023/05/25 11:00:57;;;;;;;6.30;3.70;;;33.10;42.50;;;;;;5018431;28;20969;-77
2023/05/25 11:03:43;;;;;;;6.43;3.20;;;32.90;43.20;;;;;;5022536;28;20596;-75
2023/05/25 11:06:22;;;;;;;6.80;4.20;;;32.80;43.30;;;;;;5018608;28;21056;-76
2023/05/25 11:09:01;;;;;;;5.17;3.90;;;32.70;43.40;;;;;;5012479;28;20680;-76
2023/05/25 11:11:45;;;;;;;6.13;4.13;;;32.60;42.80;;;;;;5010345;28;21233;-76
2023/05/25 11:14:20;;;;;;;6.40;4.00;;;32.50;43.20;;;;;;5026888;28;21138;-76
2023/05/25 11:17:09;;;;;;;7.40;4.40;;;32.40;43.00;;;;;;5024898;28;20637;-76
2023/05/25 11:19:46;;;;;;;6.03;4.77;;;32.10;42.90;;;;;;5025450;28;20575;-76
2023/05/25 11:22:19;;;;;;;7.57;4.20;;;31.90;42.70;;;;;;5024879;28;20981;-76
2023/05/25 11:24:52;;;;;;;6.33;5.07;;;31.50;42.50;;;;;;5025252;28;20614;-76
2023/05/25 11:27:29;;;;;;;5.00;3.90;;;31.20;42.60;;;;;;5009208;28;21208;-76
2023/05/25 11:29:57;;;;;;;5.50;4.40;;;30.80;42.50;;;;;;5025326;28;20655;-76
2023/05/25 11:32:24;;;;;;;5.27;3.80;;;30.20;42.40;;;;;;5010237;28;20588;-76
2023/05/25 11:34:58;;;;;;;5.07;3.70;;;29.70;42.50;;;;;;5011419;28;20941;-76
2023/05/25 11:37:30;;;;;;;6.10;4.60;;;29.10;43.00;;;;;;4994016;28;20703;-76
2023/05/25 11:39:55;;;;;;;5.00;4.00;;;28.70;43.60;;;;;;5010265;28;20573;-76
2023/05/25 11:42:23;;;;;;;7.10;4.00;;;28.40;44.00;;;;;;4994132;28;20578;-77
2023/05/25 11:44:49;;;;;;;7.03;3.23;;;28.20;44.70;;;;;;5011098;28;20202;-77
2023/05/25 11:47:21;;;;;;;4.50;3.30;;;28.20;45.50;;;;;;5011671;28;20943;-76
2023/05/25 11:49:48;;;;;;;4.87;3.40;;;28.20;45.70;;;;;;5011234;28;20577;-77
2023/05/25 11:52:16;;;;;;;5.43;3.50;;;28.30;46.00;;;;;;5010314;28;20578;-77
2023/05/25 11:54:42;;;;;;;5.50;3.27;;;28.50;46.20;;;;;;5010520;28;20624;-76
2023/05/25 11:57:15;;;;;;;4.20;2.67;;;28.50;45.70;;;;;;5010552;28;20683;-76
2023/05/25 11:59:50;;;;;;;5.47;3.20;;;28.40;45.50;;;;;;5012418;28;20574;-76
2023/05/25 12:02:16;;;;;;;4.33;3.33;;;28.30;45.40;;;;;;5025901;28;20605;-76
2023/05/25 12:04:55;;;;;;;4.53;2.90;;;28.30;45.60;;;;;;5011969;28;20619;-77
2023/05/25 12:07:22;;;;;;;5.53;2.73;;;28.10;45.60;;;;;;5009331;28;20585;-77
2023/05/25 12:09:48;;;;;;;10.70;3.50;;;28.00;45.60;;;;;;5026913;28;20575;-76
2023/05/25 12:12:13;;;;;;;5.80;3.07;;;27.80;45.80;;;;;;5027421;28;20574;-76
2023/05/25 12:14:49;;;;;;;6.77;3.80;;;27.60;45.90;;;;;;5011139;28;21026;-77
2023/05/25 12:17:17;;;;;;;5.80;2.90;;;27.40;46.50;;;;;;5009682;28;20600;-77
2023/05/25 12:19:43;;;;;;;6.13;3.20;;;27.30;46.60;;;;;;5009315;28;20584;-76
2023/05/25 12:22:10;;;;;;;6.87;3.87;;;27.20;46.60;;;;;;5010066;28;20582;-76
2023/05/25 12:24:36;;;;;;;7.40;3.73;;;26.90;46.90;;;;;;5010650;28;20644;-76
2023/05/25 12:27:04;;;;;;;10.33;3.30;;;26.80;46.50;;;;;;5010921;28;21335;-75
2023/05/25 12:29:44;;;;;;;5.10;3.30;;;26.60;46.50;;;;;;5010559;28;20178;-76
2023/05/25 12:32:10;;;;;;;4.37;3.90;;;26.40;46.70;;;;;;5009908;28;20581;-76
2023/05/25 12:34:35;;;;;;;5.10;2.60;;;26.20;46.90;;;;;;5009695;28;20636;-76
2023/05/25 12:37:01;;;;;;;5.70;3.70;;;26.10;47.20;;;;;;5009151;28;20233;-76
2023/05/25 12:39:30;;;;;;;6.13;4.20;;;25.90;47.40;;;;;;5009793;28;20178;-76
2023/05/25 12:41:58;;;;;;;6.53;4.10;;;25.70;47.40;;;;;;5008390;28;20174;-76
2023/05/25 12:44:33;;;;;;;6.83;4.50;;;25.50;47.30;;;;;;5010869;28;20671;-75
2023/05/25 12:47:34;;;;;;;7.40;4.00;;;25.20;46.90;;;;;;5009745;28;20665;-76
2023/05/25 12:50:11;;;;;;;6.73;4.33;;;24.90;47.40;;;;;;4971871;28;20629;-76